Time;durP1;ratioP1;P1;durP2;ratioP2;P2;SDS_P1;SDS_P2;PMS_P1;PMS_P2;Temp;Humidity;BMP_temperature;BMP_pressure;BME280_temperature;BME280_humidity;BME280_pressure;Samples;Min_cycle;Max_cycle;Signal;HPM_P1;HPM_P2
2021/10/07 00:05:51;;;;;;;13.02;10.23;;;10.90;99.90;;;;;;12391552;28;20041;-85
2021/10/07 00:11:53;;;;;;;14.32;9.05;;;10.80;99.90;;;;;;12401070;28;20045;-85
2021/10/07 00:17:57;;;;;;;12.48;9.00;;;10.90;99.90;;;;;;12395129;28;20058;-85
2021/10/07 00:24:07;;;;;;;;;;;11.00;99.90;;;;;;12382961;28;20119;-85
2021/10/07 00:30:19;;;;;;;11.68;7.88;;;11.00;99.90;;;;;;12376266;28;20341;-85
2021/10/07 00:42:28;;;;;;;13.85;8.88;;;11.00;99.90;;;;;;12398810;28;20451;-86
2021/10/07 00:48:30;;;;;;;10.60;7.82;;;11.10;99.90;;;;;;12386273;28;20999;-85
2021/10/07 00:54:33;;;;;;;11.65;7.93;;;11.10;99.90;;;;;;12386003;28;20054;-85
2021/10/07 01:00:35;;;;;;;10.98;7.47;;;11.10;99.90;;;;;;12383462;28;20097;-85
2021/10/07 01:06:40;;;;;;;10.65;8.40;;;11.20;99.90;;;;;;12387857;28;20058;-83
2021/10/07 01:12:42;;;;;;;10.48;8.13;;;11.10;99.90;;;;;;12397752;28;20050;-85
2021/10/07 01:18:45;;;;;;;11.40;8.27;;;11.00;99.90;;;;;;12380576;28;20436;-85
2021/10/07 01:24:50;;;;;;;11.77;8.25;;;11.00;99.90;;;;;;12381357;28;20042;-85
2021/10/07 01:30:52;;;;;;;14.38;9.00;;;11.00;99.90;;;;;;12349705;28;20100;-84
2021/10/07 01:36:55;;;;;;;15.98;9.50;;;11.00;99.90;;;;;;12352091;28;20052;-85
2021/10/07 01:42:57;;;;;;;13.10;9.63;;;10.90;99.90;;;;;;12345303;28;20129;-85
2021/10/07 01:49:00;;;;;;;14.77;10.48;;;10.90;99.90;;;;;;12344986;28;20089;-85
2021/10/07 01:55:02;;;;;;;13.93;11.00;;;10.90;99.90;;;;;;12352792;28;20100;-86
2021/10/07 02:01:04;;;;;;;14.73;10.57;;;10.90;99.90;;;;;;12368758;28;20981;-86
2021/10/07 02:07:06;;;;;;;13.02;9.43;;;10.90;99.90;;;;;;12360393;28;20050;-85
2021/10/07 02:13:08;;;;;;;10.45;8.70;;;11.00;99.90;;;;;;12361212;28;20110;-85
2021/10/07 02:19:10;;;;;;;14.25;8.60;;;11.10;99.90;;;;;;12357057;28;20124;-86
2021/10/07 02:25:12;;;;;;;24.80;9.60;;;10.90;99.90;;;;;;12357962;28;20105;-85
2021/10/07 02:31:14;;;;;;;380.40;13.85;;;10.80;99.90;;;;;;12345937;28;20046;-85
2021/10/07 02:37:16;;;;;;;245.23;11.13;;;10.80;99.90;;;;;;12343576;28;20054;-86
2021/10/07 02:43:18;;;;;;;309.55;12.32;;;10.70;99.90;;;;;;12347211;28;20564;-86
2021/10/07 02:49:19;;;;;;;206.65;11.05;;;10.70;99.90;;;;;;12359513;28;20573;-86
2021/10/07 02:55:23;;;;;;;129.00;9.23;;;10.80;99.90;;;;;;12350152;28;20054;-85
2021/10/07 03:01:26;;;;;;;187.35;9.98;;;10.70;99.90;;;;;;12366120;28;20419;-84
2021/10/07 03:07:28;;;;;;;229.68;12.10;;;10.70;99.90;;;;;;12356333;28;20054;-85
2021/10/07 03:13:30;;;;;;;95.20;10.35;;;10.60;99.90;;;;;;12369582;28;20088;-85
2021/10/07 03:19:31;;;;;;;84.10;9.38;;;10.70;99.90;;;;;;12350990;28;20058;-85
2021/10/07 03:25:33;;;;;;;74.07;8.95;;;10.70;99.90;;;;;;12354442;28;20051;-85
2021/10/07 03:31:35;;;;;;;47.15;9.05;;;10.70;99.90;;;;;;12349677;28;20047;-85
2021/10/07 03:37:39;;;;;;;30.70;8.27;;;10.70;99.90;;;;;;12363919;28;20553;-85
2021/10/07 03:43:41;;;;;;;22.50;9.68;;;10.80;99.90;;;;;;12351306;28;20043;-85
2021/10/07 03:49:43;;;;;;;19.83;10.10;;;10.70;99.90;;;;;;12359880;28;20062;-85
2021/10/07 03:55:44;;;;;;;27.00;10.07;;;10.80;99.90;;;;;;12346547;28;20096;-85
2021/10/07 04:01:46;;;;;;;27.70;10.52;;;10.80;99.90;;;;;;12356911;28;20046;-85
2021/10/07 04:07:48;;;;;;;58.05;10.82;;;10.90;99.90;;;;;;12366403;28;20085;-84
2021/10/07 04:13:50;;;;;;;47.97;10.48;;;10.90;99.90;;;;;;12351187;28;20043;-85
2021/10/07 04:19:52;;;;;;;37.85;10.38;;;10.90;99.90;;;;;;12348870;28;20701;-85
2021/10/07 04:25:54;;;;;;;21.23;11.45;;;11.00;99.90;;;;;;12354504;28;20532;-85
2021/10/07 04:31:56;;;;;;;22.83;12.05;;;10.90;99.90;;;;;;12339399;28;20047;-85
2021/10/07 04:37:58;;;;;;;25.58;13.77;;;10.90;99.90;;;;;;12343958;28;20450;-85
2021/10/07 04:44:01;;;;;;;19.20;13.30;;;10.90;99.90;;;;;;12339469;28;20053;-85
2021/10/07 04:50:05;;;;;;;19.67;12.93;;;11.00;99.90;;;;;;12332154;28;20050;-85
2021/10/07 04:56:07;;;;;;;25.58;14.45;;;11.00;99.90;;;;;;12345852;28;20097;-85
2021/10/07 05:02:11;;;;;;;23.90;15.43;;;11.00;99.90;;;;;;12340859;28;20093;-84
2021/10/07 05:08:14;;;;;;;26.27;16.50;;;10.90;99.90;;;;;;12338944;28;20047;-86
2021/10/07 05:14:16;;;;;;;28.13;17.75;;;10.90;99.90;;;;;;12338180;28;20051;-85
2021/10/07 05:20:18;;;;;;;27.65;16.70;;;10.90;99.90;;;;;;12331800;28;20051;-85
2021/10/07 05:26:20;;;;;;;27.90;16.85;;;10.90;99.90;;;;;;12344712;28;20058;-85
2021/10/07 05:32:21;;;;;;;28.17;16.80;;;11.00;99.90;;;;;;12383862;28;20068;-85
2021/10/07 05:38:23;;;;;;;30.90;17.50;;;11.00;99.90;;;;;;12364974;28;20576;-85
2021/10/07 05:44:25;;;;;;;29.27;17.02;;;11.10;99.90;;;;;;12382081;28;20517;-86
2021/10/07 05:50:27;;;;;;;26.65;17.42;;;11.10;99.90;;;;;;12377369;28;20045;-87
2021/10/07 05:56:29;;;;;;;28.48;16.30;;;11.10;99.90;;;;;;12391589;28;20624;-85
2021/10/07 06:02:31;;;;;;;30.80;18.60;;;11.10;99.90;;;;;;12368705;28;20038;-86
2021/10/07 06:08:33;;;;;;;29.95;18.88;;;11.10;99.90;;;;;;12374402;28;20716;-85
2021/10/07 06:14:35;;;;;;;28.85;18.00;;;11.00;99.90;;;;;;12373702;28;20108;-86
2021/10/07 06:20:37;;;;;;;32.88;19.27;;;11.00;99.90;;;;;;12386211;28;20132;-86
2021/10/07 06:26:39;;;;;;;31.90;17.75;;;11.00;99.90;;;;;;12376752;28;20058;-86
2021/10/07 06:32:43;;;;;;;29.98;18.40;;;11.00;99.90;;;;;;12373653;28;20446;-85
2021/10/07 06:38:44;;;;;;;27.47;16.77;;;11.10;99.90;;;;;;12380969;28;20046;-85
2021/10/07 06:44:46;;;;;;;27.33;16.83;;;11.10;99.90;;;;;;12340427;28;20101;-86
2021/10/07 06:50:48;;;;;;;29.05;17.05;;;11.20;99.90;;;;;;12315792;28;20054;-86
2021/10/07 06:56:50;;;;;;;24.80;16.45;;;11.20;99.90;;;;;;12374812;28;20062;-86
2021/10/07 07:02:53;;;;;;;33.58;18.63;;;11.20;99.90;;;;;;12377821;28;20055;-86
2021/10/07 07:08:55;;;;;;;28.50;18.40;;;11.20;99.90;;;;;;12365101;28;20050;-86
2021/10/07 07:14:57;;;;;;;29.17;17.77;;;11.30;99.90;;;;;;12366934;28;20074;-86
2021/10/07 07:20:59;;;;;;;33.38;17.10;;;11.20;99.90;;;;;;12388295;28;20042;-85
2021/10/07 07:27:00;;;;;;;27.40;17.80;;;11.30;99.90;;;;;;12372445;28;20878;-86
2021/10/07 07:33:03;;;;;;;35.88;18.88;;;11.40;99.90;;;;;;12373428;28;20543;-86
2021/10/07 07:39:05;;;;;;;36.20;19.30;;;11.40;99.90;;;;;;12384754;28;20479;-86
2021/10/07 07:45:09;;;;;;;34.30;18.65;;;11.50;99.90;;;;;;12397078;28;20054;-86
2021/10/07 07:51:32;;;;;;;28.92;18.13;;;11.50;99.90;;;;;;12385333;28;20076;-85
2021/10/07 07:57:34;;;;;;;28.17;17.20;;;11.60;99.90;;;;;;12395418;28;20048;-86
2021/10/07 08:03:36;;;;;;;29.73;18.65;;;11.60;99.90;;;;;;12379650;28;20045;-86
2021/10/07 08:09:43;;;;;;;32.05;17.92;;;11.60;99.90;;;;;;12385809;28;20115;-87
2021/10/07 08:15:45;;;;;;;26.92;16.88;;;11.70;99.90;;;;;;12371136;28;20546;-86
2021/10/07 08:21:47;;;;;;;32.63;18.60;;;11.90;99.90;;;;;;12373904;28;20069;-85
2021/10/07 08:27:49;;;;;;;31.88;19.13;;;11.90;99.90;;;;;;12375292;28;20066;-87
2021/10/07 08:33:51;;;;;;;30.15;18.98;;;12.10;99.90;;;;;;12381202;28;20057;-86
2021/10/07 08:39:53;;;;;;;28.48;18.30;;;12.10;99.90;;;;;;12380480;28;20084;-86
2021/10/07 08:45:55;;;;;;;30.10;18.90;;;12.10;99.90;;;;;;12378880;28;20572;-86
2021/10/07 08:51:57;;;;;;;29.83;18.83;;;12.20;99.90;;;;;;12372098;28;20046;-85
2021/10/07 08:57:59;;;;;;;29.40;18.63;;;12.20;99.90;;;;;;12373667;28;20089;-86
2021/10/07 09:04:25;;;;;;;31.33;19.88;;;12.20;99.90;;;;;;12365016;28;20050;-86
2021/10/07 09:10:37;;;;;;;28.73;19.83;;;12.30;99.90;;;;;;12394072;28;20050;-86
2021/10/07 09:16:48;;;;;;;27.25;18.63;;;12.30;99.90;;;;;;12370918;28;20105;-87
2021/10/07 09:22:49;;;;;;;24.90;17.13;;;12.40;99.90;;;;;;12384959;28;20041;-86
2021/10/07 09:28:57;;;;;;;25.15;18.50;;;12.70;99.90;;;;;;12398462;28;20157;-86
2021/10/07 09:35:01;;;;;;;26.42;16.80;;;12.70;99.90;;;;;;12331773;28;20095;-85
2021/10/07 09:41:14;;;;;;;24.67;17.48;;;12.70;99.90;;;;;;12329738;28;20050;-86
2021/10/07 09:47:30;;;;;;;22.48;16.60;;;13.10;99.90;;;;;;12370652;28;20648;-86
2021/10/07 09:53:32;;;;;;;22.35;16.35;;;13.30;99.90;;;;;;12365771;28;20104;-86
2021/10/07 09:59:34;;;;;;;19.52;14.88;;;13.40;99.90;;;;;;12372987;28;20050;-87
2021/10/07 10:05:37;;;;;;;21.80;16.23;;;13.50;99.90;;;;;;12381894;28;20053;-86
2021/10/07 10:11:42;;;;;;;19.70;14.57;;;13.70;99.90;;;;;;12380393;28;20077;-88
2021/10/07 10:17:44;;;;;;;21.77;15.85;;;13.70;99.90;;;;;;12378209;28;20050;-86
2021/10/07 10:23:47;;;;;;;20.60;15.25;;;13.80;99.90;;;;;;12389940;28;20042;-86
2021/10/07 10:29:49;;;;;;;19.42;14.75;;;13.50;99.90;;;;;;12374510;28;20066;-87
2021/10/07 10:35:51;;;;;;;23.23;16.20;;;13.40;99.90;;;;;;12381414;28;20071;-86
2021/10/07 10:42:02;;;;;;;24.58;16.58;;;13.50;99.90;;;;;;12383401;28;20117;-88
2021/10/07 10:48:04;;;;;;;18.85;14.85;;;13.50;99.90;;;;;;12373889;28;20054;-86
2021/10/07 10:54:11;;;;;;;20.17;14.77;;;13.60;99.90;;;;;;12370047;28;20384;-87
2021/10/07 11:00:30;;;;;;;19.65;14.40;;;13.90;99.90;;;;;;12368007;28;20513;-86
2021/10/07 11:06:52;;;;;;;16.42;11.75;;;14.00;99.90;;;;;;12381995;28;20100;-87
2021/10/07 11:12:57;;;;;;;21.25;14.15;;;13.90;99.90;;;;;;12375499;28;20053;-86
2021/10/07 11:19:00;;;;;;;18.25;13.00;;;13.90;99.90;;;;;;12376767;28;20050;-87
2021/10/07 11:25:05;;;;;;;17.23;12.73;;;13.80;99.90;;;;;;12383558;28;20112;-88
2021/10/07 11:31:19;;;;;;;18.30;13.60;;;13.90;99.90;;;;;;12392334;28;20046;-86
2021/10/07 11:37:21;;;;;;;;;;;14.00;99.90;;;;;;12377649;28;20077;-87
2021/10/07 11:43:25;;;;;;;16.80;12.80;;;14.30;99.90;;;;;;12392199;28;19929;-87
2021/10/07 11:49:27;;;;;;;;;;;14.60;99.90;;;;;;12396503;28;20046;-87
2021/10/07 11:55:29;;;;;;;17.30;10.95;;;14.50;99.90;;;;;;12387434;28;19925;-85
2021/10/07 12:01:36;;;;;;;20.10;11.15;;;14.40;99.90;;;;;;12384077;28;20054;-86
2021/10/07 12:07:37;;;;;;;12.25;8.40;;;14.60;99.90;;;;;;12405323;28;20140;-87
2021/10/07 12:13:47;;;;;;;10.10;6.53;;;15.60;99.90;;;;;;12391430;28;20050;-87
2021/10/07 12:19:49;;;;;;;7.53;5.40;;;16.00;99.90;;;;;;12394342;28;20050;-87
2021/10/07 12:25:57;;;;;;;9.55;5.95;;;16.60;99.90;;;;;;12392990;28;20047;-88
2021/10/07 12:32:01;;;;;;;10.88;6.72;;;16.40;99.90;;;;;;12354191;28;20558;-87
2021/10/07 12:38:03;;;;;;;9.15;6.50;;;16.30;99.90;;;;;;12348508;28;20050;-86
2021/10/07 12:44:05;;;;;;;8.88;6.05;;;16.80;99.90;;;;;;12339130;28;20046;-87
2021/10/07 12:50:07;;;;;;;10.57;7.40;;;16.80;99.90;;;;;;12345896;28;20050;-85
2021/10/07 12:56:15;;;;;;;12.02;6.43;;;17.20;99.90;;;;;;12364926;28;20050;-86
2021/10/07 13:02:31;;;;;;;8.43;6.00;;;16.50;99.90;;;;;;12367876;28;20073;-85
2021/10/07 13:08:33;;;;;;;10.57;7.32;;;16.60;99.90;;;;;;12364665;28;20059;-85
2021/10/07 13:14:35;;;;;;;9.68;6.55;;;16.70;99.90;;;;;;12354691;28;20053;-87
2021/10/07 13:20:37;;;;;;;11.38;7.18;;;16.40;99.90;;;;;;12351418;28;20042;-88
2021/10/07 13:26:47;;;;;;;9.10;5.90;;;16.30;99.90;;;;;;12340253;28;20483;-85
2021/10/07 13:32:56;;;;;;;11.18;6.18;;;16.80;99.90;;;;;;12386427;28;20096;-85
2021/10/07 13:39:02;;;;;;;8.52;5.43;;;16.90;99.90;;;;;;12378882;28;20533;-86
2021/10/07 13:45:04;;;;;;;8.50;5.78;;;16.40;99.90;;;;;;12380442;28;20058;-84
2021/10/07 13:51:06;;;;;;;9.98;6.50;;;15.80;99.90;;;;;;12374300;28;20072;-84
2021/10/07 13:57:08;;;;;;;10.45;6.57;;;15.40;99.90;;;;;;12369195;28;20052;-85
2021/10/07 14:03:10;;;;;;;9.85;6.80;;;15.30;99.90;;;;;;12378927;28;20471;-84
2021/10/07 14:09:12;;;;;;;9.95;6.43;;;15.20;99.90;;;;;;12396882;28;20564;-85
2021/10/07 14:15:14;;;;;;;10.55;6.28;;;15.30;99.90;;;;;;12393870;28;20041;-85
2021/10/07 14:21:16;;;;;;;9.10;5.90;;;15.30;99.90;;;;;;12374571;28;20135;-84
2021/10/07 14:27:18;;;;;;;9.18;6.00;;;15.30;99.90;;;;;;12381203;28;20084;-85
2021/10/07 14:33:20;;;;;;;11.02;6.28;;;15.30;99.90;;;;;;12370109;28;20050;-86
2021/10/07 14:39:22;;;;;;;8.02;5.22;;;15.20;99.90;;;;;;12383800;28;20058;-86
2021/10/07 14:45:24;;;;;;;9.95;5.55;;;15.10;99.90;;;;;;12350420;28;20699;-86
2021/10/07 14:51:26;;;;;;;7.18;5.25;;;14.80;99.90;;;;;;12390935;28;20414;-85
2021/10/07 14:57:28;;;;;;;9.63;5.82;;;14.70;99.90;;;;;;12391038;28;20050;-85
2021/10/07 15:03:30;;;;;;;6.75;5.32;;;14.70;99.90;;;;;;12373575;28;20066;-85
2021/10/07 15:09:32;;;;;;;8.82;5.30;;;14.50;99.90;;;;;;12371225;28;20124;-85
2021/10/07 15:15:34;;;;;;;8.25;5.25;;;14.50;99.90;;;;;;12389790;28;20050;-85
2021/10/07 15:21:39;;;;;;;6.53;4.78;;;14.40;99.90;;;;;;12380668;28;20062;-85
2021/10/07 15:27:41;;;;;;;6.45;4.28;;;14.40;99.90;;;;;;12400335;28;20061;-85
2021/10/07 15:33:43;;;;;;;7.57;4.38;;;14.50;99.90;;;;;;12377898;28;20317;-85
2021/10/07 15:39:45;;;;;;;6.47;4.20;;;14.50;99.90;;;;;;12389561;28;20645;-85
2021/10/07 15:45:49;;;;;;;8.48;4.80;;;14.50;99.90;;;;;;12378390;28;20117;-85
2021/10/07 15:51:53;;;;;;;9.73;4.80;;;14.50;99.90;;;;;;12382540;28;20107;-86
2021/10/07 15:57:55;;;;;;;;;;;14.40;99.90;;;;;;12390451;28;20152;-84
2021/10/07 16:03:58;;;;;;;8.85;5.55;;;14.30;99.90;;;;;;12377465;28;20021;-86
2021/10/07 16:10:02;;;;;;;8.50;5.18;;;14.30;99.90;;;;;;12371187;28;20050;-86
2021/10/07 16:16:04;;;;;;;7.70;4.10;;;14.10;99.90;;;;;;12374071;28;20046;-86
2021/10/07 16:22:06;;;;;;;5.93;4.43;;;14.20;99.90;;;;;;12368440;28;20046;-85
2021/10/07 16:28:08;;;;;;;8.35;4.80;;;14.20;99.90;;;;;;12371597;28;20064;-86
2021/10/07 16:34:12;;;;;;;7.18;4.22;;;14.20;99.90;;;;;;12379901;28;20145;-85
2021/10/07 16:40:14;;;;;;;6.97;4.35;;;14.10;99.90;;;;;;12365622;28;20050;-86
2021/10/07 16:46:16;;;;;;;7.50;4.28;;;13.80;99.90;;;;;;12384796;28;20062;-84
2021/10/07 16:52:18;;;;;;;8.45;4.63;;;13.80;99.90;;;;;;12375306;28;20173;-86
2021/10/07 16:58:20;;;;;;;7.72;5.20;;;13.60;99.90;;;;;;12387327;28;20140;-86
2021/10/07 17:04:22;;;;;;;8.52;4.80;;;13.60;99.90;;;;;;12374738;28;20567;-84
2021/10/07 17:10:24;;;;;;;6.20;4.70;;;13.50;99.90;;;;;;12372165;28;20120;-84
2021/10/07 17:16:25;;;;;;;11.52;5.68;;;13.50;99.90;;;;;;12380187;28;20474;-85
2021/10/07 17:22:27;;;;;;;9.95;5.38;;;13.40;99.90;;;;;;12380837;28;20053;-85
2021/10/07 17:28:30;;;;;;;10.65;6.45;;;13.30;99.90;;;;;;12375203;28;20061;-84
2021/10/07 17:34:32;;;;;;;9.13;6.95;;;13.20;99.90;;;;;;12378496;28;20117;-84
2021/10/07 17:40:33;;;;;;;11.52;7.07;;;13.00;99.90;;;;;;12369916;28;20038;-84
2021/10/07 17:46:35;;;;;;;12.95;8.40;;;12.90;99.90;;;;;;12367447;28;20058;-84
2021/10/07 17:52:38;;;;;;;12.90;8.27;;;12.80;99.90;;;;;;12368694;28;20564;-85
2021/10/07 17:58:40;;;;;;;14.63;8.70;;;12.60;99.90;;;;;;12368855;28;20494;-84
2021/10/07 18:04:42;;;;;;;14.93;9.48;;;12.30;99.90;;;;;;12378024;28;20076;-84
2021/10/07 18:10:46;;;;;;;14.63;9.70;;;12.40;99.90;;;;;;12362983;28;20111;-85
2021/10/07 18:16:48;;;;;;;15.53;9.60;;;12.20;99.90;;;;;;12375165;28;20042;-84
2021/10/07 18:22:53;;;;;;;16.92;10.48;;;12.30;99.90;;;;;;12374358;28;20482;-84
2021/10/07 18:28:55;;;;;;;16.33;8.95;;;12.10;99.90;;;;;;12361575;28;20062;-84
2021/10/07 18:34:57;;;;;;;12.48;8.05;;;12.00;99.90;;;;;;12377166;28;20057;-84
2021/10/07 18:41:05;;;;;;;10.18;7.32;;;12.00;99.90;;;;;;12386126;28;20053;-85
2021/10/07 18:47:07;;;;;;;10.80;6.63;;;11.80;99.90;;;;;;12371130;28;20494;-85
2021/10/07 18:53:09;;;;;;;10.60;6.93;;;11.80;99.90;;;;;;12381571;28;20072;-84
2021/10/07 18:59:11;;;;;;;10.15;7.28;;;11.70;99.90;;;;;;12360422;28;20096;-85
2021/10/07 19:05:13;;;;;;;10.52;7.85;;;11.70;99.90;;;;;;12360669;28;20156;-84
2021/10/07 19:11:15;;;;;;;10.95;8.18;;;11.70;99.90;;;;;;12369927;28;20108;-84
2021/10/07 19:17:18;;;;;;;10.38;7.38;;;11.60;99.90;;;;;;12383908;28;20387;-84
2021/10/07 19:23:20;;;;;;;13.70;8.20;;;11.50;99.90;;;;;;12378401;28;20494;-84
2021/10/07 19:29:22;;;;;;;11.77;8.02;;;11.40;99.90;;;;;;12378367;28;20510;-84
2021/10/07 19:35:24;;;;;;;11.95;7.80;;;11.40;99.90;;;;;;12376624;28;20116;-84
2021/10/07 19:41:30;;;;;;;10.65;7.50;;;11.40;99.90;;;;;;12392048;28;20049;-84
2021/10/07 19:47:31;;;;;;;9.75;7.07;;;11.40;99.90;;;;;;12397035;28;20093;-83
2021/10/07 19:53:33;;;;;;;12.25;7.07;;;11.30;99.90;;;;;;12377860;28;20323;-84
2021/10/07 19:59:35;;;;;;;10.68;6.85;;;11.30;99.90;;;;;;12389237;28;20417;-84
2021/10/07 20:05:37;;;;;;;9.77;6.50;;;11.20;99.90;;;;;;12378907;28;20062;-84
2021/10/07 20:11:39;;;;;;;11.23;6.85;;;11.20;99.90;;;;;;12374534;28;20053;-83
2021/10/07 20:17:41;;;;;;;10.65;6.35;;;11.00;99.90;;;;;;12395862;28;20069;-84
2021/10/07 20:23:43;;;;;;;9.55;6.38;;;11.00;99.90;;;;;;12400170;28;20149;-84
2021/10/07 20:29:45;;;;;;;9.57;6.72;;;10.90;99.90;;;;;;12381749;28;20058;-84
2021/10/07 20:36:00;;;;;;;10.07;6.68;;;10.80;99.90;;;;;;12382161;28;20038;-84
2021/10/07 20:42:03;;;;;;;8.75;6.70;;;10.80;99.90;;;;;;12377441;28;20108;-84
2021/10/07 20:48:05;;;;;;;8.48;6.50;;;10.80;99.90;;;;;;12378380;28;20050;-84
2021/10/07 20:54:07;;;;;;;10.00;6.18;;;10.80;99.90;;;;;;12369964;28;20116;-85
2021/10/07 21:00:13;;;;;;;10.20;7.20;;;10.70;99.90;;;;;;12389334;28;20495;-84
2021/10/07 21:06:16;;;;;;;10.23;7.32;;;10.60;99.90;;;;;;12371840;28;20058;-84
2021/10/07 21:12:18;;;;;;;14.10;7.63;;;10.60;99.90;;;;;;12396416;28;20046;-84
2021/10/07 21:18:19;;;;;;;13.30;7.65;;;10.60;99.90;;;;;;12378751;28;20038;-84
2021/10/07 21:24:21;;;;;;;10.93;7.20;;;10.70;99.90;;;;;;12375167;28;20046;-84
2021/10/07 21:30:23;;;;;;;8.23;6.03;;;10.90;99.90;;;;;;12384809;28;20046;-84
2021/10/07 21:36:25;;;;;;;9.48;6.30;;;10.90;99.90;;;;;;12370232;28;20050;-84
2021/10/07 21:42:27;;;;;;;7.53;5.90;;;10.80;99.90;;;;;;12389798;28;20046;-84
2021/10/07 21:48:31;;;;;;;8.07;6.18;;;10.80;99.90;;;;;;12373159;28;20093;-84
2021/10/07 21:54:33;;;;;;;8.27;6.05;;;10.80;99.90;;;;;;12386026;28;20102;-85
2021/10/07 22:00:43;;;;;;;9.23;6.03;;;10.60;99.90;;;;;;12385635;28;20153;-84
2021/10/07 22:06:45;;;;;;;7.97;5.53;;;10.60;99.90;;;;;;12387018;28;20049;-85
2021/10/07 22:12:48;;;;;;;8.30;5.28;;;10.60;99.90;;;;;;12376692;28;20058;-84
2021/10/07 22:18:50;;;;;;;7.15;5.43;;;10.70;99.90;;;;;;12372924;28;20080;-84
2021/10/07 22:24:52;;;;;;;5.88;4.68;;;10.70;99.90;;;;;;12380684;28;20366;-84
2021/10/07 22:30:54;;;;;;;9.63;5.20;;;10.90;99.90;;;;;;12378387;28;20457;-84
2021/10/07 22:36:55;;;;;;;7.20;4.90;;;11.00;99.90;;;;;;12384927;28;20505;-83
2021/10/07 22:42:57;;;;;;;6.38;4.78;;;10.80;99.90;;;;;;12378439;28;20046;-84
2021/10/07 22:48:59;;;;;;;5.90;4.78;;;10.70;99.90;;;;;;12364623;28;20050;-84
2021/10/07 22:55:01;;;;;;;6.93;5.05;;;10.70;99.90;;;;;;12374343;28;20046;-84
2021/10/07 23:01:03;;;;;;;7.20;5.30;;;10.60;99.90;;;;;;12376014;28;20155;-84
2021/10/07 23:07:05;;;;;;;9.23;5.15;;;10.50;99.90;;;;;;12379313;28;20390;-85
2021/10/07 23:13:07;;;;;;;10.27;5.50;;;10.70;99.90;;;;;;12388749;28;20050;-84
2021/10/07 23:19:09;;;;;;;7.68;5.10;;;10.70;99.90;;;;;;12380286;28;20537;-83
2021/10/07 23:25:11;;;;;;;8.65;4.80;;;10.60;99.90;;;;;;12336329;28;20046;-84
2021/10/07 23:31:12;;;;;;;6.70;5.25;;;10.60;99.90;;;;;;12337139;28;20050;-83
2021/10/07 23:37:16;;;;;;;8.45;5.72;;;10.50;99.90;;;;;;12406388;28;20069;-84
2021/10/07 23:43:18;;;;;;;9.48;6.28;;;10.30;99.90;;;;;;12393497;28;20042;-83
2021/10/07 23:49:20;;;;;;;10.93;6.25;;;10.20;99.90;;;;;;12380717;28;20054;-84
2021/10/07 23:55:22;;;;;;;7.78;6.15;;;10.30;99.90;;;;;;12350030;28;20039;-83
